Time;durP1;ratioP1;P1;durP2;ratioP2;P2;SDS_P1;SDS_P2;PMS_P1;PMS_P2;Temp;Humidity;BMP_temperature;BMP_pressure;BME280_temperature;BME280_humidity;BME280_pressure;Samples;Min_cycle;Max_cycle;Signal;HPM_P1;HPM_P2
2023/08/09 00:01:34;;;;;;;2.60;2.35;;;;;;;21.49;62.35;99963.75;5055700;28;20044;-66
2023/08/09 00:04:01;;;;;;;2.95;2.65;;;;;;;21.45;62.52;99964.44;5055680;28;20044;-64
2023/08/09 00:06:26;;;;;;;3.80;2.35;;;;;;;21.43;62.87;99963.84;5054911;28;20039;-64
2023/08/09 00:08:52;;;;;;;2.72;2.50;;;;;;;21.42;63.13;99973.81;5055631;28;20037;-65
2023/08/09 00:11:17;;;;;;;2.90;2.65;;;;;;;21.44;63.05;99971.69;5055280;28;20033;-66
2023/08/09 00:13:43;;;;;;;3.10;2.83;;;;;;;21.36;62.98;99972.00;5051608;28;20037;-64
2023/08/09 00:16:09;;;;;;;4.57;2.97;;;;;;;20.94;66.05;99979.94;5055056;28;20389;-64
2023/08/09 00:18:35;;;;;;;3.20;2.90;;;;;;;20.35;68.78;99965.13;5055139;28;20048;-64
2023/08/09 00:21:00;;;;;;;3.50;2.75;;;;;;;20.09;70.53;99971.56;5054671;28;20383;-65
2023/08/09 00:23:26;;;;;;;3.42;3.13;;;;;;;19.97;71.38;99975.16;5054010;28;20176;-66
2023/08/09 00:25:52;;;;;;;3.97;3.40;;;;;;;19.81;72.46;99981.88;5055311;28;20032;-64
2023/08/09 00:28:17;;;;;;;3.70;3.17;;;;;;;19.95;72.02;99979.94;5050974;28;20327;-64
2023/08/09 00:30:43;;;;;;;4.72;3.40;;;;;;;20.15;71.64;99975.22;5055178;28;20057;-64
2023/08/09 00:33:09;;;;;;;3.78;2.70;;;;;;;20.33;71.24;99985.22;5055302;28;20330;-66
2023/08/09 00:35:34;;;;;;;3.30;3.00;;;;;;;20.37;71.14;99978.38;5055008;28;20064;-64
2023/08/09 00:38:00;;;;;;;3.33;3.03;;;;;;;20.48;71.05;99975.00;5054359;28;20033;-66
2023/08/09 00:40:26;;;;;;;2.83;2.63;;;;;;;20.56;70.46;99973.88;5056613;28;20045;-64
2023/08/09 00:42:52;;;;;;;3.78;3.22;;;;;;;20.66;69.60;99963.44;5056628;28;20039;-64
2023/08/09 00:45:17;;;;;;;3.33;3.03;;;;;;;20.65;69.54;99969.84;5054629;28;20255;-66
2023/08/09 00:47:43;;;;;;;3.42;2.90;;;;;;;20.62;68.98;99963.06;5054618;28;20345;-65
2023/08/09 00:50:09;;;;;;;4.43;3.38;;;;;;;20.52;70.44;99961.91;5054429;28;20045;-64
2023/08/09 00:52:36;;;;;;;3.10;2.90;;;;;;;20.64;69.77;99963.66;5056118;28;20061;-66
2023/08/09 00:55:03;;;;;;;3.95;2.97;;;;;;;20.66;68.91;99966.13;5055658;28;20037;-64
2023/08/09 00:57:29;;;;;;;2.97;2.67;;;;;;;20.55;69.37;99970.38;5054538;28;20395;-66
2023/08/09 00:59:54;;;;;;;3.65;3.00;;;;;;;20.51;69.79;99963.78;5055005;28;20407;-66
2023/08/09 01:02:20;;;;;;;3.88;2.80;;;;;;;20.55;69.05;99967.69;5055826;28;20442;-63
2023/08/09 01:04:46;;;;;;;3.65;3.35;;;;;;;20.27;69.02;99961.91;5054794;28;20126;-66
2023/08/09 01:07:27;;;;;;;3.63;2.97;;;;;;;20.39;68.63;99957.47;5054114;28;20036;-66
2023/08/09 01:10:09;;;;;;;3.85;3.17;;;;;;;20.54;68.55;99954.44;5050867;28;20045;-66
2023/08/09 01:12:41;;;;;;;4.00;3.10;;;;;;;20.52;67.84;99956.53;5053699;28;20040;-66
2023/08/09 01:15:08;;;;;;;4.70;3.38;;;;;;;20.45;68.28;99964.66;5053961;28;20282;-66
2023/08/09 01:17:35;;;;;;;4.95;3.90;;;;;;;20.51;67.88;99949.50;5050202;28;20090;-64
2023/08/09 01:20:04;;;;;;;6.05;3.83;;;;;;;20.69;67.51;99946.84;5054171;28;20063;-64
2023/08/09 01:22:38;;;;;;;6.00;3.50;;;;;;;20.75;66.83;99958.59;5054275;28;20044;-64
2023/08/09 01:25:06;;;;;;;3.72;3.25;;;;;;;20.75;66.33;99961.28;5054071;28;20052;-64
2023/08/09 01:27:35;;;;;;;3.50;3.20;;;;;;;20.78;66.42;99952.75;5055243;28;20037;-66
2023/08/09 01:30:04;;;;;;;3.92;3.38;;;;;;;20.51;66.44;99952.19;5055648;28;20040;-64
2023/08/09 01:32:30;;;;;;;5.20;3.45;;;;;;;20.61;66.53;99956.03;5055065;28;20241;-64
2023/08/09 01:34:58;;;;;;;3.78;3.42;;;;;;;20.66;66.26;99961.56;5056308;28;20028;-66
2023/08/09 01:38:19;;;;;;;4.78;3.25;;;;;;;20.60;67.25;99959.75;5054279;28;20323;-66
2023/08/09 01:40:44;;;;;;;4.78;3.30;;;;;;;20.57;66.53;99962.91;4991502;28;20054;-64
2023/08/09 01:43:10;;;;;;;3.47;2.85;;;;;;;20.51;66.72;99961.09;5040017;28;20045;-64
2023/08/09 01:45:37;;;;;;;3.15;2.83;;;;;;;20.13;68.09;99963.88;5053947;28;20051;-66
2023/08/09 01:48:03;;;;;;;2.70;2.50;;;;;;;20.28;67.73;99967.06;5050897;28;20388;-66
2023/08/09 01:50:28;;;;;;;4.00;2.97;;;;;;;20.34;66.77;99968.88;5055248;28;20049;-64
2023/08/09 01:52:58;;;;;;;4.65;3.42;;;;;;;20.40;66.20;99967.19;5054550;28;20037;-66
2023/08/09 01:55:25;;;;;;;4.03;3.25;;;;;;;20.47;66.35;99967.13;5055891;28;20112;-64
2023/08/09 01:57:52;;;;;;;4.30;3.25;;;;;;;20.51;65.87;99961.09;5055913;28;20035;-66
2023/08/09 02:00:19;;;;;;;3.58;3.28;;;;;;;20.48;66.07;99968.78;5052842;28;20475;-64
2023/08/09 02:02:45;;;;;;;3.35;3.05;;;;;;;20.44;66.34;99960.34;5053849;28;20043;-64
2023/08/09 02:05:11;;;;;;;4.10;3.17;;;;;;;20.49;66.71;99965.06;5054009;28;20049;-64
2023/08/09 02:07:37;;;;;;;3.25;2.75;;;;;;;20.36;67.04;99971.34;5054112;28;20218;-64
2023/08/09 02:10:04;;;;;;;3.30;2.95;;;;;;;20.29;67.64;99967.88;5053969;28;20037;-64
2023/08/09 02:12:30;;;;;;;3.42;3.10;;;;;;;20.26;67.95;99969.16;5053298;28;20357;-66
2023/08/09 02:14:55;;;;;;;4.13;3.10;;;;;;;20.09;68.44;99974.25;5053670;28;20039;-66
2023/08/09 02:17:21;;;;;;;3.22;2.92;;;;;;;19.99;68.69;99976.59;5052887;28;20218;-64
2023/08/09 02:19:47;;;;;;;5.35;3.50;;;;;;;20.01;68.89;99982.56;5053773;28;21210;-66
2023/08/09 02:22:12;;;;;;;4.88;3.25;;;;;;;20.16;68.62;99979.56;5053642;28;20033;-64
2023/08/09 02:24:38;;;;;;;3.38;3.08;;;;;;;20.26;68.30;99987.16;5054317;28;20049;-66
2023/08/09 02:27:03;;;;;;;6.20;3.40;;;;;;;20.29;68.43;99990.22;5055148;28;20509;-66
2023/08/09 02:29:30;;;;;;;3.65;3.20;;;;;;;20.29;67.82;99992.91;5056725;28;20040;-64
2023/08/09 02:31:56;;;;;;;3.35;3.00;;;;;;;20.26;67.90;99989.84;5055064;28;20037;-66
2023/08/09 02:34:22;;;;;;;3.35;2.92;;;;;;;20.24;68.34;99994.59;5054836;28;20071;-64
2023/08/09 02:36:48;;;;;;;3.45;3.15;;;;;;;20.17;68.69;100002.72;5056307;28;20041;-66
2023/08/09 02:39:13;;;;;;;3.90;3.13;;;;;;;20.02;68.83;100008.41;5054710;28;20203;-66
2023/08/09 02:41:42;;;;;;;4.85;3.53;;;;;;;19.90;69.15;100012.84;5053981;28;20037;-66
2023/08/09 02:44:08;;;;;;;5.90;3.90;;;;;;;19.87;69.23;100015.94;5055791;28;20093;-65
2023/08/09 02:46:33;;;;;;;4.85;2.92;;;;;;;19.85;68.83;100019.91;5054717;28;20078;-66
2023/08/09 02:48:58;;;;;;;5.03;3.63;;;;;;;19.82;69.20;100020.31;5057295;28;20460;-65
2023/08/09 02:51:24;;;;;;;4.10;3.47;;;;;;;19.68;70.19;100019.53;5058000;28;20337;-66
2023/08/09 02:54:02;;;;;;;4.00;3.22;;;;;;;19.66;71.60;100027.81;5057358;28;20048;-64
2023/08/09 02:56:28;;;;;;;3.88;3.30;;;;;;;19.60;71.66;100020.63;5056162;28;20341;-64
2023/08/09 02:58:54;;;;;;;4.38;3.92;;;;;;;19.56;71.96;100019.38;5057018;28;20037;-66
2023/08/09 03:01:21;;;;;;;6.00;3.40;;;;;;;19.58;71.58;100022.69;5056428;28;20063;-66
2023/08/09 03:03:50;;;;;;;5.43;3.35;;;;;;;19.49;71.74;100020.44;5056522;28;20238;-66
2023/08/09 03:06:17;;;;;;;3.80;3.33;;;;;;;19.32;72.13;100023.59;5055685;28;20529;-64
2023/08/09 03:08:44;;;;;;;3.80;2.92;;;;;;;19.27;72.02;100025.25;5056686;28;20028;-64
2023/08/09 03:11:10;;;;;;;3.58;3.05;;;;;;;19.23;71.87;100024.88;5052722;28;20041;-65
2023/08/09 03:13:35;;;;;;;4.80;3.25;;;;;;;19.17;72.07;100032.94;5056557;28;20110;-64
2023/08/09 03:16:00;;;;;;;3.00;2.80;;;;;;;19.16;72.25;100036.66;5056770;28;20052;-64
2023/08/09 03:18:26;;;;;;;3.63;3.10;;;;;;;19.11;72.33;100037.28;5055924;28;20037;-64
2023/08/09 03:20:52;;;;;;;4.68;3.30;;;;;;;19.03;72.71;100040.19;5057033;28;20364;-64
2023/08/09 03:23:18;;;;;;;3.88;3.53;;;;;;;19.03;73.15;100045.56;5056708;28;20045;-66
2023/08/09 03:25:43;;;;;;;5.90;3.88;;;;;;;19.05;73.26;100049.69;5056552;28;20029;-66
2023/08/09 03:28:09;;;;;;;4.32;3.67;;;;;;;19.14;73.12;100055.66;5057037;28;20094;-64
2023/08/09 03:30:34;;;;;;;4.15;3.75;;;;;;;19.14;73.16;100059.16;5057907;28;20044;-66
2023/08/09 03:33:00;;;;;;;5.20;3.88;;;;;;;19.16;73.28;100060.81;5057977;28;20087;-64
2023/08/09 03:35:25;;;;;;;4.13;3.40;;;;;;;19.07;73.45;100071.78;5057392;28;20041;-65
2023/08/09 03:37:51;;;;;;;4.28;3.67;;;;;;;19.22;72.97;100070.72;5056968;28;20033;-66
2023/08/09 03:40:16;;;;;;;6.65;3.25;;;;;;;19.36;72.30;100086.56;5058042;28;20072;-64
2023/08/09 03:42:43;;;;;;;6.45;3.70;;;;;;;19.39;71.91;100075.41;5057551;28;20037;-63
2023/08/09 03:45:09;;;;;;;4.85;3.67;;;;;;;19.44;71.15;100075.59;5058621;28;20324;-64
2023/08/09 03:47:36;;;;;;;4.05;3.58;;;;;;;19.35;71.42;100081.41;5056321;28;20056;-64
2023/08/09 03:50:04;;;;;;;6.35;4.10;;;;;;;19.38;72.22;100092.56;5055761;28;20386;-66
2023/08/09 03:52:30;;;;;;;7.80;3.55;;;;;;;19.40;72.14;100089.66;5055258;28;20045;-64
2023/08/09 03:54:56;;;;;;;6.80;3.65;;;;;;;19.36;72.20;100088.44;5056587;28;20052;-66
2023/08/09 03:57:21;;;;;;;7.00;4.00;;;;;;;19.39;72.12;100090.69;5038857;28;20047;-64
2023/08/09 03:59:49;;;;;;;7.03;3.60;;;;;;;19.41;72.06;100094.00;5055511;28;20041;-64
2023/08/09 04:02:15;;;;;;;6.15;3.40;;;;;;;19.54;71.49;100093.16;5055663;28;20044;-64
2023/08/09 04:04:40;;;;;;;3.72;3.35;;;;;;;19.64;70.49;100098.91;5055900;28;20036;-64
2023/08/09 04:07:06;;;;;;;6.53;3.30;;;;;;;19.58;70.78;100095.22;5055918;28;20037;-66
2023/08/09 04:09:32;;;;;;;5.72;4.50;;;;;;;19.58;71.22;100110.50;5057230;28;20040;-64
2023/08/09 04:11:59;;;;;;;5.82;3.92;;;;;;;19.55;70.98;100101.00;5055822;28;20208;-66
2023/08/09 04:14:25;;;;;;;5.43;3.45;;;;;;;19.51;71.45;100105.13;5055448;28;20041;-64
2023/08/09 04:16:51;;;;;;;4.38;3.22;;;;;;;19.33;72.44;100097.72;5054847;28;20049;-66
2023/08/09 04:19:16;;;;;;;5.55;3.85;;;;;;;19.43;72.25;100105.34;5057280;28;20056;-65
2023/08/09 04:21:42;;;;;;;7.43;4.20;;;;;;;19.44;72.09;100107.81;5056189;28;20024;-66
2023/08/09 04:24:10;;;;;;;6.28;3.92;;;;;;;19.44;71.75;100115.06;5057566;28;20037;-64
2023/08/09 04:26:36;;;;;;;5.32;3.65;;;;;;;19.43;71.90;100110.72;5057619;28;20032;-64
2023/08/09 04:29:02;;;;;;;5.75;4.07;;;;;;;19.53;72.41;100111.13;5055003;28;20041;-66
2023/08/09 04:31:28;;;;;;;4.65;3.63;;;;;;;19.56;72.79;100116.09;5054663;28;20044;-64
2023/08/09 04:33:53;;;;;;;4.43;3.75;;;;;;;19.61;72.68;100108.22;5055350;28;20574;-66
2023/08/09 04:36:19;;;;;;;9.15;5.00;;;;;;;19.65;72.66;100116.69;5055270;28;20045;-64
2023/08/09 04:38:45;;;;;;;4.63;4.03;;;;;;;19.61;73.56;100110.09;5055106;28;20041;-66
2023/08/09 04:41:11;;;;;;;7.78;6.32;;;;;;;19.51;73.79;100113.19;5055005;28;20033;-66
2023/08/09 04:43:38;;;;;;;6.10;4.95;;;;;;;19.60;73.72;100111.13;5055092;28;20086;-65
2023/08/09 04:46:03;;;;;;;7.88;4.15;;;;;;;19.70;72.83;100117.69;5054720;28;20043;-64
2023/08/09 04:48:29;;;;;;;3.63;3.30;;;;;;;19.81;71.72;100116.25;5055799;28;20049;-66
2023/08/09 04:50:55;;;;;;;5.03;3.47;;;;;;;20.04;71.51;100105.78;5057253;28;20212;-66
2023/08/09 04:53:21;;;;;;;4.15;3.45;;;;;;;20.19;69.92;100116.25;5055457;28;20044;-65
2023/08/09 04:55:47;;;;;;;4.38;3.35;;;;;;;20.35;69.06;100114.91;5054812;28;20020;-64
2023/08/09 04:58:12;;;;;;;3.50;3.03;;;;;;;20.24;68.73;100110.22;5055527;28;20111;-64
2023/08/09 05:00:38;;;;;;;2.95;2.75;;;;;;;20.52;67.88;100112.56;5055302;28;20040;-64
2023/08/09 05:03:05;;;;;;;3.65;3.30;;;;;;;20.75;67.07;100107.41;5055074;28;20051;-66
2023/08/09 05:05:30;;;;;;;2.65;2.45;;;;;;;20.99;67.06;100114.69;5055478;28;20037;-66
2023/08/09 05:07:56;;;;;;;4.05;3.10;;;;;;;21.11;65.92;100111.28;5055122;28;20382;-66
2023/08/09 05:10:22;;;;;;;4.05;3.08;;;;;;;21.20;66.51;100115.31;5053821;28;20040;-64
2023/08/09 05:12:48;;;;;;;4.47;3.20;;;;;;;21.27;66.28;100118.81;5054723;28;20094;-64
2023/08/09 05:15:13;;;;;;;3.42;3.13;;;;;;;21.49;65.16;100124.59;5054211;28;20345;-66
2023/08/09 05:17:39;;;;;;;5.00;2.78;;;;;;;21.66;63.88;100128.34;5054008;28;20029;-64
2023/08/09 05:20:05;;;;;;;5.13;3.33;;;;;;;21.83;64.49;100133.94;5054309;28;20067;-64
2023/08/09 05:22:30;;;;;;;3.97;3.58;;;;;;;21.85;63.04;100137.25;5053594;28;20044;-66
2023/08/09 05:24:56;;;;;;;4.25;3.75;;;;;;;21.67;63.45;100133.50;5039058;28;20041;-66
2023/08/09 05:27:21;;;;;;;4.78;3.22;;;;;;;21.91;62.55;100141.75;5054766;28;20108;-66
2023/08/09 05:29:47;;;;;;;3.78;3.47;;;;;;;21.61;63.39;100150.56;5055989;28;20064;-66
2023/08/09 05:32:12;;;;;;;5.00;3.10;;;;;;;21.89;62.09;100154.63;5241548;22;20132;-65
2023/08/09 05:34:38;;;;;;;5.88;3.08;;;;;;;22.02;60.92;100151.78;5057493;28;20044;-66
2023/08/09 05:37:03;;;;;;;3.10;2.58;;;;;;;22.42;60.33;100156.66;5054150;28;20029;-66
2023/08/09 05:39:29;;;;;;;3.22;2.75;;;;;;;22.52;59.38;100157.75;5057415;28;20040;-64
2023/08/09 05:41:54;;;;;;;3.55;3.25;;;;;;;22.64;59.67;100149.69;5056745;28;20041;-66
2023/08/09 05:44:20;;;;;;;3.78;3.08;;;;;;;22.85;59.05;100146.47;5056893;28;20106;-65
2023/08/09 05:46:45;;;;;;;3.63;3.22;;;;;;;22.85;58.50;100148.34;5057133;28;20033;-66
2023/08/09 05:49:11;;;;;;;4.22;3.28;;;;;;;23.15;58.07;100142.91;5057336;28;20275;-64
2023/08/09 05:51:36;;;;;;;6.15;2.83;;;;;;;23.29;57.91;100135.38;5056672;28;20075;-64
2023/08/09 05:54:02;;;;;;;3.17;2.97;;;;;;;23.55;56.03;100141.13;5057160;28;20318;-64
2023/08/09 05:56:27;;;;;;;3.35;3.05;;;;;;;23.56;55.65;100140.06;5056984;28;20073;-64
2023/08/09 05:58:53;;;;;;;3.35;3.08;;;;;;;23.62;55.65;100138.31;5056944;28;20446;-64
2023/08/09 06:01:18;;;;;;;3.85;3.47;;;;;;;23.77;53.84;100144.03;5056286;28;20037;-66
2023/08/09 06:03:44;;;;;;;3.78;3.13;;;;;;;23.99;53.25;100138.84;5056732;28;20029;-66
2023/08/09 06:06:13;;;;;;;2.85;2.65;;;;;;;24.06;53.37;100141.41;5056386;28;20350;-66
2023/08/09 06:08:39;;;;;;;3.78;3.38;;;;;;;24.08;51.88;100136.56;5056666;28;20156;-66
2023/08/09 06:11:04;;;;;;;2.40;2.20;;;;;;;24.05;52.38;100140.56;5056853;28;20207;-64
2023/08/09 06:13:30;;;;;;;3.08;2.88;;;;;;;24.24;51.16;100149.31;5056298;28;20049;-64
2023/08/09 06:15:57;;;;;;;2.60;2.40;;;;;;;24.35;50.01;100150.38;5056939;28;20037;-68
2023/08/09 06:18:23;;;;;;;2.60;2.38;;;;;;;24.49;50.60;100143.59;5057049;28;20068;-68
2023/08/09 06:20:48;;;;;;;5.20;2.60;;;;;;;24.69;49.99;100148.53;5057091;28;20108;-66
2023/08/09 06:23:14;;;;;;;3.03;2.67;;;;;;;24.77;49.94;100148.97;5060939;28;20041;-68
2023/08/09 06:25:40;;;;;;;3.35;2.50;;;;;;;24.83;49.06;100147.97;5061547;28;20032;-67
2023/08/09 06:28:06;;;;;;;2.67;2.40;;;;;;;24.72;49.65;100146.16;5061720;28;20075;-68
2023/08/09 06:30:31;;;;;;;2.92;2.72;;;;;;;25.16;47.95;100145.56;5060490;28;20044;-66
2023/08/09 06:32:57;;;;;;;4.47;2.55;;;;;;;25.07;48.69;100147.88;5061317;28;20045;-68
2023/08/09 06:35:22;;;;;;;2.38;2.20;;;;;;;25.40;48.03;100133.47;5061870;28;20090;-67
2023/08/09 06:37:50;;;;;;;2.58;2.47;;;;;;;25.61;46.74;100129.13;5060624;28;20233;-66
2023/08/09 06:40:16;;;;;;;4.07;3.08;;;;;;;25.84;46.72;100131.63;5061715;28;20270;-68
2023/08/09 06:42:43;;;;;;;3.35;2.42;;;;;;;25.77;46.24;100125.56;5060807;28;20044;-67
2023/08/09 06:45:09;;;;;;;2.25;2.15;;;;;;;25.97;45.28;100123.09;5061361;28;20053;-67
2023/08/09 06:47:34;;;;;;;2.70;2.50;;;;;;;26.20;44.43;100124.72;5061156;28;20206;-68
2023/08/09 06:50:04;;;;;;;2.50;2.30;;;;;;;26.13;44.24;100126.00;5060715;28;20025;-67
2023/08/09 06:52:31;;;;;;;2.88;2.67;;;;;;;26.37;43.54;100114.63;5060198;28;20041;-68
2023/08/09 06:54:56;;;;;;;3.00;2.58;;;;;;;26.59;43.52;100113.75;5058328;28;20060;-69
2023/08/09 06:57:22;;;;;;;2.70;2.50;;;;;;;26.79;43.98;100115.81;5055530;28;20041;-68
2023/08/09 06:59:47;;;;;;;2.45;2.25;;;;;;;26.69;43.54;100125.50;5059000;28;20029;-69
2023/08/09 07:02:14;;;;;;;2.70;2.47;;;;;;;26.61;42.93;100122.44;5054523;28;20045;-67
2023/08/09 07:04:39;;;;;;;3.05;2.55;;;;;;;27.03;42.84;100114.38;5055727;28;20036;-67
2023/08/09 07:07:05;;;;;;;4.18;2.70;;;;;;;27.30;41.71;100117.84;5055648;28;20233;-64
2023/08/09 07:09:31;;;;;;;2.45;2.25;;;;;;;27.49;39.85;100109.25;5056628;28;20032;-65
2023/08/09 07:11:57;;;;;;;2.50;2.30;;;;;;;27.65;39.92;100105.56;5055003;28;20410;-65
2023/08/09 07:14:23;;;;;;;2.08;1.98;;;;;;;27.73;39.61;100104.22;5056034;28;20298;-64
2023/08/09 07:16:49;;;;;;;2.13;1.95;;;;;;;27.76;38.89;100104.50;5055932;28;20060;-65
2023/08/09 07:19:15;;;;;;;2.03;1.92;;;;;;;27.93;39.37;100098.84;5055623;28;20028;-66
2023/08/09 07:21:40;;;;;;;2.42;1.90;;;;;;;28.03;38.95;100109.75;5055499;28;20228;-65
2023/08/09 07:24:06;;;;;;;2.20;1.75;;;;;;;28.14;38.16;100100.56;5053870;28;20033;-65
2023/08/09 07:26:31;;;;;;;1.77;1.67;;;;;;;28.36;36.54;100108.53;5055068;28;20471;-65
2023/08/09 07:28:57;;;;;;;1.98;1.88;;;;;;;28.56;36.71;100100.38;5053894;28;20035;-66
2023/08/09 07:31:24;;;;;;;2.47;2.00;;;;;;;28.64;36.46;100101.75;5054428;28;20037;-66
2023/08/09 07:33:51;;;;;;;2.00;1.90;;;;;;;28.93;35.25;100100.13;5054914;28;20051;-65
2023/08/09 07:36:16;;;;;;;2.38;2.17;;;;;;;28.98;35.51;100093.84;5055201;28;20167;-66
2023/08/09 07:38:41;;;;;;;2.25;2.15;;;;;;;28.94;35.84;100087.31;5055148;28;20103;-67
2023/08/09 07:41:07;;;;;;;2.75;2.10;;;;;;;29.02;35.92;100075.84;5054270;28;20036;-67
2023/08/09 07:43:33;;;;;;;2.70;2.30;;;;;;;29.12;35.18;100078.53;5054827;28;20036;-65
2023/08/09 07:45:58;;;;;;;5.40;2.30;;;;;;;29.20;35.55;100080.75;5055190;28;20060;-64
2023/08/09 07:48:24;;;;;;;2.70;2.17;;;;;;;29.32;34.83;100077.72;5053779;28;20044;-65
2023/08/09 07:50:49;;;;;;;2.50;2.30;;;;;;;29.33;34.07;100081.25;5054718;28;20080;-65
2023/08/09 07:53:15;;;;;;;2.33;2.13;;;;;;;29.04;34.02;100081.84;5055139;28;20060;-65
2023/08/09 07:55:40;;;;;;;2.33;2.03;;;;;;;29.11;34.15;100081.56;5054899;28;20065;-66
2023/08/09 07:58:06;;;;;;;3.20;2.00;;;;;;;29.18;33.88;100076.66;5055348;28;20037;-64
2023/08/09 08:00:33;;;;;;;3.10;2.60;;;;;;;29.43;34.18;100065.69;5054385;28;20067;-65
2023/08/09 08:02:58;;;;;;;4.28;2.22;;;;;;;29.52;33.15;100066.75;5053305;28;20028;-64
2023/08/09 08:05:25;;;;;;;2.45;2.15;;;;;;;29.50;34.12;100058.03;5054299;28;20045;-66
2023/08/09 08:07:50;;;;;;;2.40;2.20;;;;;;;29.63;32.61;100063.97;5054263;28;20032;-66
2023/08/09 08:10:16;;;;;;;2.25;2.05;;;;;;;29.80;33.28;100057.06;5054595;28;20037;-65
2023/08/09 08:12:48;;;;;;;3.38;2.10;;;;;;;29.84;33.44;100057.31;5052547;28;20032;-65
2023/08/09 08:15:13;;;;;;;2.97;2.28;;;;;;;29.96;32.79;100056.97;5054433;28;20326;-65
2023/08/09 08:17:39;;;;;;;2.30;1.70;;;;;;;30.01;31.85;100054.22;5054670;28;20036;-65
2023/08/09 08:20:10;;;;;;;2.05;1.85;;;;;;;28.75;34.19;100056.22;5054691;28;20055;-67
2023/08/09 08:22:35;;;;;;;1.30;1.20;;;;;;;28.70;33.97;100064.41;5052798;28;20029;-66
2023/08/09 08:25:01;;;;;;;1.33;1.23;;;;;;;28.56;32.97;100051.34;5048987;28;20075;-67
2023/08/09 08:27:26;;;;;;;1.08;1.08;;;;;;;28.74;32.30;100065.50;5050536;28;20395;-66
2023/08/09 08:29:55;;;;;;;1.35;0.98;;;;;;;27.40;33.69;100051.00;5054423;28;20043;-67
2023/08/09 08:32:20;;;;;;;1.05;1.05;;;;;;;27.62;34.80;100048.94;5053217;28;20047;-64
2023/08/09 08:34:47;;;;;;;1.35;1.02;;;;;;;26.89;35.33;100054.22;5054876;28;20036;-68
2023/08/09 08:37:12;;;;;;;3.78;1.52;;;;;;;26.86;36.90;100043.03;5055764;28;20112;-66
2023/08/09 08:39:38;;;;;;;1.80;1.35;;;;;;;26.83;37.21;100047.09;5058162;28;20255;-68
2023/08/09 08:42:04;;;;;;;1.45;1.27;;;;;;;27.00;36.86;100042.34;5058614;28;20041;-68
2023/08/09 08:44:29;;;;;;;1.38;1.27;;;;;;;27.00;37.12;100036.91;5057424;28;20037;-68
2023/08/09 08:46:55;;;;;;;1.30;1.20;;;;;;;27.10;34.92;100038.91;5058079;28;20040;-68
2023/08/09 08:49:24;;;;;;;1.30;1.20;;;;;;;26.84;35.58;100040.59;5057796;28;20036;-68
2023/08/09 08:51:54;;;;;;;1.58;0.98;;;;;;;27.14;35.27;100039.19;5057597;28;20444;-68
2023/08/09 08:54:21;;;;;;;3.83;1.45;;;;;;;27.12;35.77;100038.63;5058118;28;20041;-68
2023/08/09 08:56:48;;;;;;;1.65;1.40;;;;;;;27.45;36.15;100021.94;5057608;28;20051;-65
2023/08/09 08:59:15;;;;;;;1.70;1.40;;;;;;;27.38;36.88;100021.38;5057197;28;20044;-67
2023/08/09 09:01:42;;;;;;;1.38;1.27;;;;;;;27.33;36.34;100019.44;5057023;28;20045;-68
2023/08/09 09:04:08;;;;;;;1.33;1.23;;;;;;;27.30;37.06;100019.97;5057946;28;20039;-68
2023/08/09 09:06:33;;;;;;;1.30;1.20;;;;;;;27.61;35.79;100017.41;5057098;28;20232;-66
2023/08/09 09:08:59;;;;;;;1.20;1.20;;;;;;;27.38;37.87;100010.50;5057426;28;20323;-67
2023/08/09 09:11:25;;;;;;;2.63;1.33;;;;;;;27.84;36.26;100013.38;5057521;28;20039;-64
2023/08/09 09:13:51;;;;;;;1.73;1.20;;;;;;;27.46;37.39;100006.44;5057569;28;20036;-65
2023/08/09 09:16:19;;;;;;;1.60;1.50;;;;;;;26.81;37.03;100004.97;5058369;28;20048;-69
2023/08/09 09:18:46;;;;;;;1.30;1.20;;;;;;;27.08;34.86;99997.59;5058187;28;20102;-68
2023/08/09 09:21:16;;;;;;;0.80;0.80;;;;;;;27.52;36.85;99989.88;5058479;28;20041;-65
2023/08/09 09:23:42;;;;;;;2.97;1.23;;;;;;;27.72;35.52;99989.13;5058743;28;20268;-67
2023/08/09 09:26:09;;;;;;;2.00;1.23;;;;;;;27.64;35.90;99989.66;5058573;28;20291;-67
2023/08/09 09:28:43;;;;;;;1.60;1.50;;;;;;;27.34;35.85;99999.31;5058577;28;20039;-67
2023/08/09 09:31:10;;;;;;;1.42;1.33;;;;;;;27.17;36.81;99987.84;5057801;28;20068;-67
2023/08/09 09:33:37;;;;;;;1.63;1.10;;;;;;;26.67;36.48;99972.03;5057682;28;20250;-66
2023/08/09 09:36:03;;;;;;;1.25;1.15;;;;;;;26.56;37.65;99989.31;5057364;28;20378;-67
2023/08/09 09:38:29;;;;;;;1.15;1.13;;;;;;;26.56;38.16;99983.91;5057225;28;20060;-66
2023/08/09 09:40:57;;;;;;;1.45;1.33;;;;;;;26.47;37.88;99978.13;5057829;28;20059;-69
2023/08/09 09:43:24;;;;;;;1.50;1.40;;;;;;;26.47;38.84;99982.75;5057633;28;20344;-66
2023/08/09 09:45:54;;;;;;;0.95;0.90;;;;;;;26.40;36.32;99970.22;5057272;28;20095;-68
2023/08/09 09:48:19;;;;;;;1.55;1.10;;;;;;;26.25;36.14;99982.81;5056957;28;20330;-67
2023/08/09 09:50:45;;;;;;;1.50;1.08;;;;;;;26.25;35.99;99971.97;5057599;28;20052;-67
2023/08/09 09:53:14;;;;;;;0.80;0.80;;;;;;;26.21;38.15;99970.84;5057922;28;20312;-68
2023/08/09 09:55:40;;;;;;;1.48;1.38;;;;;;;26.20;37.30;99969.22;5057384;28;20056;-67
2023/08/09 09:58:06;;;;;;;1.23;1.13;;;;;;;26.20;38.11;99969.22;5059271;28;20083;-66
2023/08/09 10:00:32;;;;;;;1.23;1.13;;;;;;;26.42;37.90;99959.09;5058147;28;20033;-68
2023/08/09 10:03:01;;;;;;;1.20;1.10;;;;;;;26.29;36.88;99957.63;5059156;28;20117;-68
2023/08/09 10:05:40;;;;;;;1.30;1.20;;;;;;;26.32;36.16;99948.97;5059603;28;20057;-68
2023/08/09 10:08:10;;;;;;;1.00;1.00;;;;;;;26.28;37.55;99953.25;5059555;28;20317;-67
2023/08/09 10:10:38;;;;;;;1.35;1.25;;;;;;;26.36;35.55;99954.69;5058858;28;20032;-68
2023/08/09 10:13:05;;;;;;;1.20;1.00;;;;;;;26.24;37.10;99954.84;5059829;28;20037;-68
2023/08/09 10:16:10;;;;;;;1.30;1.20;;;;;;;26.27;35.87;99950.81;5058721;28;20326;-68
2023/08/09 10:18:40;;;;;;;1.48;1.20;;;;;;;26.18;36.72;99955.06;5055544;28;20035;-68
2023/08/09 10:21:08;;;;;;;1.40;1.30;;;;;;;26.22;36.87;99939.91;5056958;28;20346;-68
2023/08/09 10:23:33;;;;;;;2.15;1.30;;;;;;;26.30;35.69;99929.38;5057431;28;20441;-66
2023/08/09 10:25:59;;;;;;;1.00;1.00;;;;;;;26.37;36.23;99931.91;5058101;28;20244;-67
2023/08/09 10:28:47;;;;;;;0.98;0.88;;;;;;;26.30;36.10;99940.25;5058361;28;20086;-68
2023/08/09 10:31:35;;;;;;;0.85;0.85;;;;;;;26.32;35.86;99940.84;5058642;28;20361;-68
2023/08/09 10:34:07;;;;;;;1.08;0.98;;;;;;;26.28;36.12;99919.88;5057094;28;20041;-68
2023/08/09 10:36:33;;;;;;;1.10;1.00;;;;;;;26.30;34.38;99920.44;5053571;28;20107;-67
2023/08/09 10:39:08;;;;;;;0.85;0.85;;;;;;;26.46;35.24;99924.09;5056763;28;20041;-69
2023/08/09 10:41:33;;;;;;;1.10;0.82;;;;;;;26.53;35.81;99914.63;5058659;28;20079;-68
2023/08/09 10:44:03;;;;;;;1.65;0.80;;;;;;;26.71;35.86;99916.91;5058939;28;20029;-67
2023/08/09 10:46:33;;;;;;;0.90;0.90;;;;;;;26.50;34.61;99915.16;5058526;28;20040;-67
2023/08/09 10:49:00;;;;;;;1.00;1.00;;;;;;;26.45;34.53;99920.56;5057626;28;20029;-68
2023/08/09 10:51:26;;;;;;;0.93;0.93;;;;;;;26.45;34.17;99908.88;5057318;28;20044;-68
2023/08/09 10:54:05;;;;;;;1.65;0.90;;;;;;;26.33;34.39;99892.78;5057492;28;20044;-67
2023/08/09 10:56:44;;;;;;;1.63;1.10;;;;;;;26.50;35.27;99900.75;5056820;28;20282;-68
2023/08/09 10:59:24;;;;;;;1.25;0.90;;;;;;;26.56;34.33;99899.72;5055154;28;20215;-68
2023/08/09 11:01:51;;;;;;;0.95;0.90;;;;;;;26.69;34.79;99894.63;5056773;28;20256;-68
2023/08/09 11:04:19;;;;;;;1.00;1.00;;;;;;;26.55;34.52;99888.03;5058429;28;20504;-68
2023/08/09 11:06:48;;;;;;;1.60;0.93;;;;;;;26.60;33.74;99893.50;5057649;28;20043;-68
2023/08/09 11:09:16;;;;;;;1.17;1.00;;;;;;;26.72;34.24;99891.38;5057684;28;20056;-66
2023/08/09 11:11:43;;;;;;;1.00;0.90;;;;;;;26.71;34.10;99894.34;5056550;28;20036;-66
2023/08/09 11:14:09;;;;;;;0.90;0.90;;;;;;;26.55;33.93;99879.06;5056647;28;20316;-66
2023/08/09 11:16:35;;;;;;;0.80;0.80;;;;;;;26.72;35.39;99876.97;5057211;28;20068;-66
2023/08/09 11:19:15;;;;;;;1.38;0.85;;;;;;;26.70;35.40;99868.28;5057461;28;20265;-66
2023/08/09 11:21:46;;;;;;;1.52;1.17;;;;;;;26.69;35.37;99870.19;5056866;28;20083;-66
2023/08/09 11:24:12;;;;;;;0.98;0.98;;;;;;;26.89;36.11;99861.28;5052776;28;20274;-66
2023/08/09 11:26:45;;;;;;;1.85;1.17;;;;;;;27.11;34.50;99857.63;5055581;28;20060;-65
2023/08/09 11:29:11;;;;;;;1.30;1.20;;;;;;;27.01;34.61;99852.94;5056238;28;20033;-66